Time;durP1;ratioP1;P1;durP2;ratioP2;P2;SDS_P1;SDS_P2;PMS_P1;PMS_P2;Temp;Humidity;BMP_temperature;BMP_pressure;BME280_temperature;BME280_humidity;BME280_pressure;Samples;Min_cycle;Max_cycle;Signal;HPM_P1;HPM_P2
2023/10/19 00:02:19;;;;;;;9.10;4.70;;;10.70;99.90;;;;;;5053546;28;20210;-72
2023/10/19 00:04:47;;;;;;;5.30;4.30;;;10.70;99.90;;;;;;5053108;28;20219;-69
2023/10/19 00:07:17;;;;;;;7.60;4.75;;;10.60;99.90;;;;;;5053482;28;20250;-71
2023/10/19 00:09:47;;;;;;;7.07;5.60;;;10.70;99.90;;;;;;5052885;28;20231;-70
2023/10/19 00:12:16;;;;;;;6.20;5.28;;;10.70;99.90;;;;;;5052302;28;20218;-71
2023/10/19 00:14:43;;;;;;;5.55;5.05;;;10.60;99.90;;;;;;5052868;28;20219;-71
2023/10/19 00:17:12;;;;;;;6.60;5.53;;;10.70;99.90;;;;;;5053060;28;20215;-69
2023/10/19 00:19:41;;;;;;;7.68;6.03;;;10.70;99.90;;;;;;5052758;28;20204;-68
2023/10/19 00:22:14;;;;;;;5.78;5.20;;;10.70;99.90;;;;;;5065465;28;20211;-70
2023/10/19 00:24:44;;;;;;;6.05;5.45;;;10.70;99.90;;;;;;5072462;28;20226;-69
2023/10/19 00:27:17;;;;;;;6.30;5.20;;;10.60;99.90;;;;;;5044857;28;20198;-71
2023/10/19 00:29:49;;;;;;;5.53;5.03;;;10.60;99.90;;;;;;5052468;28;20233;-71
2023/10/19 00:32:18;;;;;;;5.03;4.30;;;10.50;99.90;;;;;;5052932;28;20212;-70
2023/10/19 00:34:51;;;;;;;8.07;5.65;;;10.60;99.90;;;;;;5052616;28;20223;-69
2023/10/19 00:37:26;;;;;;;6.15;4.75;;;10.60;99.90;;;;;;5052888;28;20211;-70
2023/10/19 00:40:14;;;;;;;5.30;4.78;;;10.60;99.90;;;;;;5052280;28;20234;-70
2023/10/19 00:42:46;;;;;;;5.63;5.03;;;10.60;99.90;;;;;;5052800;28;20204;-70
2023/10/19 00:45:14;;;;;;;5.88;5.05;;;10.60;99.90;;;;;;5051069;28;20223;-70
2023/10/19 00:47:42;;;;;;;5.88;5.28;;;10.60;99.90;;;;;;5052313;28;20766;-68
2023/10/19 00:50:15;;;;;;;7.40;5.47;;;10.60;99.90;;;;;;5052521;28;20239;-70
2023/10/19 00:52:49;;;;;;;6.47;4.15;;;10.60;99.90;;;;;;5068718;28;20199;-69
2023/10/19 00:55:20;;;;;;;5.90;5.30;;;10.60;99.90;;;;;;5052416;28;20298;-70
2023/10/19 00:57:49;;;;;;;6.05;4.93;;;10.70;99.90;;;;;;5052026;28;20204;-71
2023/10/19 01:00:30;;;;;;;7.55;4.80;;;10.80;99.90;;;;;;5047446;28;20215;-70
2023/10/19 01:03:04;;;;;;;5.07;4.43;;;10.90;99.90;;;;;;5051026;28;20204;-69
2023/10/19 01:05:35;;;;;;;6.10;5.50;;;10.90;99.90;;;;;;5052155;28;20302;-69
2023/10/19 01:08:14;;;;;;;5.22;4.70;;;10.90;99.90;;;;;;5052111;28;20219;-70
2023/10/19 01:10:45;;;;;;;5.07;4.57;;;11.00;99.90;;;;;;5051177;28;20218;-68
2023/10/19 01:13:16;;;;;;;4.70;4.22;;;10.90;99.90;;;;;;5052095;28;20210;-70
2023/10/19 01:15:49;;;;;;;6.40;5.07;;;11.00;99.90;;;;;;5051559;28;20266;-70
2023/10/19 01:18:17;;;;;;;5.85;4.75;;;11.00;99.90;;;;;;5043775;28;20199;-69
2023/10/19 01:20:50;;;;;;;4.03;3.63;;;11.00;99.90;;;;;;5052355;28;20640;-69
2023/10/19 01:23:25;;;;;;;3.45;3.15;;;11.10;99.90;;;;;;5071771;28;20207;-69
2023/10/19 01:26:05;;;;;;;2.42;2.22;;;11.20;99.90;;;;;;5061488;28;20223;-69
2023/10/19 01:28:47;;;;;;;4.15;3.75;;;11.30;99.90;;;;;;5051706;28;20216;-70
2023/10/19 01:31:22;;;;;;;4.68;4.25;;;11.40;99.90;;;;;;5044686;28;20212;-70
2023/10/19 01:33:54;;;;;;;4.60;4.07;;;11.40;99.90;;;;;;5051685;28;20196;-70
2023/10/19 01:36:25;;;;;;;4.15;3.75;;;11.50;99.90;;;;;;5047198;28;20195;-67
2023/10/19 01:38:55;;;;;;;4.35;3.55;;;11.50;99.90;;;;;;5045199;28;20552;-70
2023/10/19 01:41:24;;;;;;;3.90;3.50;;;11.60;99.90;;;;;;5052772;28;20739;-70
2023/10/19 01:43:53;;;;;;;4.32;3.92;;;11.60;99.90;;;;;;5051337;28;20200;-70
2023/10/19 01:46:24;;;;;;;3.60;3.30;;;11.70;99.90;;;;;;5051677;28;20246;-70
2023/10/19 01:48:55;;;;;;;3.95;3.60;;;11.70;99.90;;;;;;5050732;28;20298;-69
2023/10/19 01:51:24;;;;;;;4.45;4.05;;;11.70;99.90;;;;;;5056996;28;20292;-68
2023/10/19 01:53:55;;;;;;;6.50;3.92;;;11.80;99.90;;;;;;5059807;28;20209;-70
2023/10/19 01:56:24;;;;;;;4.00;3.58;;;11.70;99.90;;;;;;5051653;28;20204;-69
2023/10/19 01:58:51;;;;;;;5.80;4.95;;;11.80;99.90;;;;;;5050833;28;20567;-70
2023/10/19 02:01:28;;;;;;;3.58;3.28;;;11.80;99.90;;;;;;5050914;28;20290;-70
2023/10/19 02:03:58;;;;;;;5.55;4.15;;;11.80;99.90;;;;;;5050993;28;20670;-69
2023/10/19 02:06:37;;;;;;;5.38;4.35;;;11.90;99.90;;;;;;5051127;28;20208;-69
2023/10/19 02:09:17;;;;;;;4.82;4.32;;;11.90;99.90;;;;;;5050814;28;20215;-70
2023/10/19 02:11:46;;;;;;;4.60;4.20;;;11.90;99.90;;;;;;5048330;28;20637;-70
2023/10/19 02:14:14;;;;;;;4.90;3.65;;;11.90;99.90;;;;;;5050942;28;20223;-69
2023/10/19 02:16:43;;;;;;;5.22;4.45;;;11.90;99.90;;;;;;5050921;28;20204;-68
2023/10/19 02:19:10;;;;;;;4.80;3.60;;;11.90;99.90;;;;;;5050839;28;20286;-68
2023/10/19 02:21:40;;;;;;;5.18;3.90;;;11.90;99.90;;;;;;5050547;28;20200;-68
2023/10/19 02:24:09;;;;;;;7.07;4.65;;;11.90;99.90;;;;;;5062448;28;20203;-68
2023/10/19 02:26:38;;;;;;;4.28;3.70;;;11.90;99.90;;;;;;5055016;28;20215;-69
2023/10/19 02:29:07;;;;;;;4.72;4.15;;;11.90;99.90;;;;;;5049844;28;20702;-70
2023/10/19 02:31:37;;;;;;;4.90;4.40;;;11.90;99.90;;;;;;5058086;28;20203;-69
2023/10/19 02:34:05;;;;;;;6.07;4.95;;;11.90;99.90;;;;;;5050747;28;20613;-70
2023/10/19 02:36:33;;;;;;;4.28;3.88;;;11.90;99.90;;;;;;5050749;28;20199;-69
2023/10/19 02:39:07;;;;;;;6.50;4.70;;;11.90;99.90;;;;;;5058737;28;20659;-69
2023/10/19 02:41:36;;;;;;;3.42;3.05;;;11.80;99.90;;;;;;5050651;28;20200;-67
2023/10/19 02:44:09;;;;;;;4.65;4.10;;;11.80;99.90;;;;;;5049453;28;20278;-68
2023/10/19 02:46:38;;;;;;;4.40;4.00;;;11.90;99.90;;;;;;5050802;28;20204;-68
2023/10/19 02:49:11;;;;;;;3.92;3.50;;;12.00;99.90;;;;;;5049776;28;20606;-69
2023/10/19 02:51:38;;;;;;;5.45;4.15;;;12.00;99.90;;;;;;5050379;28;20196;-69
2023/10/19 02:54:07;;;;;;;4.47;4.07;;;12.00;99.90;;;;;;5051003;28;20208;-69
2023/10/19 02:56:36;;;;;;;5.22;4.50;;;12.00;99.90;;;;;;5050621;28;20253;-68
2023/10/19 02:59:04;;;;;;;5.82;4.97;;;11.90;99.90;;;;;;5053516;28;20221;-68
2023/10/19 03:01:33;;;;;;;6.00;4.60;;;11.90;99.90;;;;;;5050302;28;20200;-69
2023/10/19 03:04:02;;;;;;;6.55;5.20;;;11.80;99.90;;;;;;5050033;28;20204;-69
2023/10/19 03:06:32;;;;;;;8.20;5.05;;;11.70;99.90;;;;;;5048348;28;20211;-69
2023/10/19 03:09:04;;;;;;;9.70;6.18;;;11.70;99.90;;;;;;5050042;28;20204;-70
2023/10/19 03:11:32;;;;;;;8.65;6.20;;;11.70;99.90;;;;;;5050267;28;20283;-70
2023/10/19 03:14:04;;;;;;;10.40;6.30;;;11.70;99.90;;;;;;5044907;28;20204;-70
2023/10/19 03:16:32;;;;;;;12.20;6.90;;;11.70;99.90;;;;;;5050435;28;20628;-69
2023/10/19 03:18:59;;;;;;;12.65;7.15;;;11.70;99.90;;;;;;5050074;28;20208;-70
2023/10/19 03:21:27;;;;;;;12.35;6.70;;;11.70;99.90;;;;;;5056183;28;20207;-70
2023/10/19 03:23:56;;;;;;;15.90;8.98;;;11.80;99.90;;;;;;5068136;28;20200;-69
2023/10/19 03:26:30;;;;;;;11.93;7.60;;;11.80;99.90;;;;;;5050303;28;20261;-71
2023/10/19 03:29:01;;;;;;;10.00;5.70;;;11.80;99.90;;;;;;5056442;28;20222;-70
2023/10/19 03:31:32;;;;;;;9.35;6.32;;;11.90;99.90;;;;;;5050206;28;20208;-70
2023/10/19 03:34:05;;;;;;;15.88;8.23;;;12.00;99.90;;;;;;5058780;28;20206;-70
2023/10/19 03:36:33;;;;;;;12.65;6.60;;;12.00;99.90;;;;;;5054138;28;20204;-70
2023/10/19 03:39:11;;;;;;;15.35;7.72;;;12.10;99.90;;;;;;5053415;28;20226;-71
2023/10/19 03:41:41;;;;;;;13.55;8.18;;;12.10;99.90;;;;;;5053893;28;20791;-70
2023/10/19 03:44:15;;;;;;;16.42;8.57;;;12.10;99.90;;;;;;5045785;28;20200;-70
2023/10/19 03:46:54;;;;;;;13.55;7.75;;;12.10;99.90;;;;;;5053813;28;20211;-71
2023/10/19 03:49:26;;;;;;;12.48;7.18;;;12.20;99.90;;;;;;5047170;28;20211;-70
2023/10/19 03:52:02;;;;;;;13.32;7.05;;;12.20;99.90;;;;;;5062986;28;20231;-70
2023/10/19 03:54:32;;;;;;;16.08;8.20;;;12.40;99.90;;;;;;5073497;28;20223;-70
2023/10/19 03:57:06;;;;;;;11.73;6.65;;;12.40;99.90;;;;;;5054793;28;20208;-69
2023/10/19 03:59:34;;;;;;;17.42;6.88;;;12.40;99.90;;;;;;5053481;28;20784;-69
2023/10/19 04:02:09;;;;;;;13.73;6.43;;;12.40;99.90;;;;;;5061271;28;20203;-69
2023/10/19 04:04:39;;;;;;;14.15;8.52;;;12.40;99.90;;;;;;5053422;28;20654;-69
2023/10/19 04:07:11;;;;;;;14.40;8.07;;;12.40;99.90;;;;;;5053098;28;20200;-69
2023/10/19 04:09:56;;;;;;;15.52;8.10;;;12.30;99.90;;;;;;5053336;28;20690;-69
2023/10/19 04:12:24;;;;;;;14.43;7.18;;;12.30;99.90;;;;;;5047963;28;20231;-68
2023/10/19 04:14:53;;;;;;;17.05;9.25;;;12.40;99.90;;;;;;5050685;28;20810;-69
2023/10/19 04:17:23;;;;;;;16.10;8.52;;;12.40;99.90;;;;;;5053272;28;20196;-69
2023/10/19 04:19:52;;;;;;;20.45;11.20;;;12.30;99.90;;;;;;5052906;28;20267;-67
2023/10/19 04:22:23;;;;;;;14.25;6.68;;;12.40;99.90;;;;;;5066489;28;20958;-70
2023/10/19 04:24:52;;;;;;;17.25;8.60;;;12.30;99.90;;;;;;5071781;28;20219;-70
2023/10/19 04:27:23;;;;;;;11.55;6.82;;;12.30;99.90;;;;;;5051615;28;20282;-69
2023/10/19 04:29:52;;;;;;;20.15;9.63;;;12.30;99.90;;;;;;5052727;28;20212;-67
2023/10/19 04:32:25;;;;;;;20.15;9.27;;;12.30;99.90;;;;;;5052636;28;20200;-68
2023/10/19 04:34:54;;;;;;;18.13;9.13;;;12.20;99.90;;;;;;5052707;28;20251;-68
2023/10/19 04:37:24;;;;;;;12.20;7.43;;;12.20;99.90;;;;;;5052918;28;20291;-69
2023/10/19 04:39:52;;;;;;;19.92;11.40;;;12.20;99.90;;;;;;5052251;28;20204;-70
2023/10/19 04:42:22;;;;;;;16.10;8.07;;;12.10;99.90;;;;;;5058542;28;20208;-65
2023/10/19 04:44:51;;;;;;;18.55;9.40;;;12.10;99.90;;;;;;5050734;28;20246;-67
2023/10/19 04:47:19;;;;;;;20.25;9.00;;;12.10;99.90;;;;;;5043819;28;20390;-65
2023/10/19 04:49:46;;;;;;;17.85;9.60;;;12.10;99.90;;;;;;5046152;28;20203;-65
2023/10/19 04:52:17;;;;;;;22.30;10.15;;;12.10;99.90;;;;;;5051984;28;20204;-65
2023/10/19 04:54:45;;;;;;;20.85;9.50;;;12.10;99.90;;;;;;5055889;28;20225;-65
2023/10/19 04:57:13;;;;;;;15.13;10.25;;;12.00;99.90;;;;;;5058522;28;20214;-67
2023/10/19 04:59:45;;;;;;;18.10;10.23;;;12.10;99.90;;;;;;5052150;28;20218;-65
2023/10/19 05:02:13;;;;;;;19.60;9.48;;;12.20;99.90;;;;;;5048434;28;20196;-65
2023/10/19 05:04:41;;;;;;;23.05;9.68;;;12.20;99.90;;;;;;5048324;28;20220;-65
2023/10/19 05:07:12;;;;;;;23.27;11.32;;;12.30;99.90;;;;;;5051142;28;20298;-65
2023/10/19 05:09:41;;;;;;;19.77;10.80;;;12.20;99.90;;;;;;5045976;28;20608;-65
2023/10/19 05:12:09;;;;;;;21.30;10.23;;;12.20;99.90;;;;;;5049498;28;20226;-66
2023/10/19 05:14:38;;;;;;;20.80;9.75;;;12.30;99.90;;;;;;5045200;28;20936;-65
2023/10/19 05:17:07;;;;;;;19.60;9.40;;;12.20;99.90;;;;;;5057175;28;20211;-65
2023/10/19 05:19:36;;;;;;;20.98;9.10;;;12.30;99.90;;;;;;5053190;28;20214;-65
2023/10/19 05:22:07;;;;;;;19.60;10.40;;;12.30;99.90;;;;;;5053903;28;20695;-64
2023/10/19 05:24:35;;;;;;;23.23;11.27;;;12.30;99.90;;;;;;5053695;28;21001;-65
2023/10/19 05:27:05;;;;;;;22.00;10.15;;;12.30;99.90;;;;;;5051499;28;20212;-65
2023/10/19 05:29:33;;;;;;;21.88;10.65;;;12.30;99.90;;;;;;5055141;28;20211;-65
2023/10/19 05:32:03;;;;;;;19.42;11.48;;;12.30;99.90;;;;;;5054836;28;20234;-66
2023/10/19 05:34:32;;;;;;;21.80;9.65;;;12.40;99.90;;;;;;5052223;28;20223;-66
2023/10/19 05:37:02;;;;;;;23.73;11.38;;;12.40;99.90;;;;;;5057778;28;20210;-65
2023/10/19 05:39:31;;;;;;;20.92;9.52;;;12.40;99.90;;;;;;5044160;28;20213;-65
2023/10/19 05:42:00;;;;;;;22.90;11.38;;;12.40;99.90;;;;;;5050379;28;20203;-65
2023/10/19 05:44:31;;;;;;;22.13;11.52;;;12.40;99.90;;;;;;5048539;28;20313;-65
2023/10/19 05:47:11;;;;;;;18.83;10.98;;;12.40;99.90;;;;;;5054781;28;20764;-65
2023/10/19 05:49:38;;;;;;;21.20;10.68;;;12.40;99.90;;;;;;5045192;28;20206;-65
2023/10/19 05:52:06;;;;;;;27.02;12.45;;;12.40;99.90;;;;;;5043014;28;20302;-65
2023/10/19 05:54:36;;;;;;;23.25;11.38;;;12.40;99.90;;;;;;5045738;28;21113;-65
2023/10/19 05:57:08;;;;;;;20.15;11.20;;;12.40;99.90;;;;;;5053946;28;20227;-65
2023/10/19 05:59:37;;;;;;;18.73;11.02;;;12.40;99.90;;;;;;5038904;28;20609;-65
2023/10/19 06:02:07;;;;;;;21.17;11.25;;;12.40;99.90;;;;;;5055030;28;20625;-65
2023/10/19 06:04:35;;;;;;;25.13;13.50;;;12.50;99.90;;;;;;5050453;28;20235;-65
2023/10/19 06:07:04;;;;;;;20.98;11.82;;;12.50;99.90;;;;;;5056864;28;20682;-65
2023/10/19 06:09:32;;;;;;;23.98;12.45;;;12.50;99.90;;;;;;5049628;28;20208;-64
2023/10/19 06:12:00;;;;;;;21.55;11.88;;;12.60;99.90;;;;;;5061451;28;20272;-66
2023/10/19 06:14:30;;;;;;;19.63;13.13;;;12.60;99.90;;;;;;5070725;28;20230;-66
2023/10/19 06:17:01;;;;;;;19.35;12.10;;;12.60;99.90;;;;;;5052933;28;20226;-66
2023/10/19 06:19:29;;;;;;;21.25;13.43;;;12.50;99.90;;;;;;5048794;28;20203;-66
2023/10/19 06:21:57;;;;;;;18.60;11.93;;;12.60;99.90;;;;;;5049602;28;20631;-65
2023/10/19 06:24:25;;;;;;;19.27;11.90;;;12.60;99.90;;;;;;5052422;28;20226;-65
2023/10/19 06:26:53;;;;;;;20.67;11.45;;;12.60;99.90;;;;;;5039153;28;20200;-66
2023/10/19 06:29:24;;;;;;;28.20;13.57;;;12.60;99.90;;;;;;5050768;28;20208;-66
2023/10/19 06:31:52;;;;;;;23.88;10.90;;;12.50;99.90;;;;;;5050644;28;20219;-66
2023/10/19 06:34:21;;;;;;;27.90;14.15;;;12.50;99.90;;;;;;5049955;28;20638;-65
2023/10/19 06:36:50;;;;;;;22.80;12.77;;;12.40;99.90;;;;;;5050595;28;20414;-65
2023/10/19 06:39:20;;;;;;;23.13;14.82;;;12.50;99.90;;;;;;5049507;28;20200;-66
2023/10/19 06:41:49;;;;;;;26.70;15.25;;;12.50;99.90;;;;;;5059192;28;20253;-66
2023/10/19 06:44:17;;;;;;;21.02;14.52;;;12.50;99.90;;;;;;5050385;28;20277;-66
2023/10/19 06:46:46;;;;;;;18.88;13.88;;;12.50;99.90;;;;;;5050516;28;20207;-65
2023/10/19 06:49:15;;;;;;;24.63;13.93;;;12.60;99.90;;;;;;5041862;28;20204;-66
2023/10/19 06:51:44;;;;;;;23.20;13.88;;;12.60;99.90;;;;;;5057881;28;20219;-66
2023/10/19 06:54:13;;;;;;;22.95;13.88;;;12.60;99.90;;;;;;5056528;28;20219;-66
2023/10/19 06:56:41;;;;;;;29.80;14.57;;;12.60;99.90;;;;;;5050413;28;20556;-66
2023/10/19 06:59:09;;;;;;;23.45;14.70;;;12.70;99.90;;;;;;5050000;28;20208;-66
2023/10/19 07:01:37;;;;;;;24.20;14.55;;;12.70;99.90;;;;;;5050522;28;20200;-66
2023/10/19 07:04:05;;;;;;;23.48;14.90;;;12.70;99.90;;;;;;5049992;28;20207;-65
2023/10/19 07:06:33;;;;;;;19.83;12.15;;;12.70;99.90;;;;;;5058788;28;20222;-65
2023/10/19 07:09:05;;;;;;;26.05;14.98;;;12.70;99.90;;;;;;5043797;28;20224;-66
2023/10/19 07:11:33;;;;;;;21.83;13.88;;;12.80;99.90;;;;;;5054345;28;20219;-65
2023/10/19 07:14:02;;;;;;;22.17;14.02;;;12.80;99.90;;;;;;5053864;28;20210;-65
2023/10/19 07:16:30;;;;;;;24.52;15.43;;;12.80;99.90;;;;;;5054396;28;20296;-65
2023/10/19 07:18:59;;;;;;;22.23;13.32;;;12.90;99.90;;;;;;5053939;28;20262;-66
2023/10/19 07:21:29;;;;;;;28.08;16.05;;;12.90;99.90;;;;;;5059367;28;20226;-65
2023/10/19 07:24:01;;;;;;;26.88;13.90;;;12.90;99.90;;;;;;5071111;28;20195;-65
2023/10/19 07:26:33;;;;;;;25.35;15.07;;;12.90;99.90;;;;;;5054285;28;20230;-66
2023/10/19 07:29:01;;;;;;;27.98;14.10;;;12.90;99.90;;;;;;5053866;28;20203;-65
2023/10/19 07:31:29;;;;;;;26.08;15.82;;;13.00;99.90;;;;;;5054041;28;20744;-66
2023/10/19 07:33:58;;;;;;;24.67;15.95;;;13.00;99.90;;;;;;5053547;28;20204;-65
2023/10/19 07:36:28;;;;;;;25.70;14.60;;;13.10;99.90;;;;;;5054029;28;20203;-66
2023/10/19 07:38:56;;;;;;;25.05;14.27;;;13.00;99.90;;;;;;5051164;28;20599;-65
2023/10/19 07:41:24;;;;;;;24.83;14.90;;;13.10;99.90;;;;;;5053811;28;20246;-65
2023/10/19 07:43:53;;;;;;;23.83;14.85;;;13.10;99.90;;;;;;5053630;28;20216;-66
2023/10/19 07:46:21;;;;;;;24.52;14.68;;;13.10;99.90;;;;;;5053882;28;20265;-66
2023/10/19 07:48:49;;;;;;;19.92;11.25;;;13.20;99.90;;;;;;5053236;28;20232;-66
2023/10/19 07:51:18;;;;;;;28.48;15.02;;;13.20;99.90;;;;;;5049045;28;20203;-66
2023/10/19 07:53:46;;;;;;;26.73;14.18;;;13.20;99.90;;;;;;5064895;28;20673;-65
2023/10/19 07:56:14;;;;;;;23.38;15.02;;;13.30;99.90;;;;;;5061852;28;20795;-65
2023/10/19 07:58:42;;;;;;;21.13;13.23;;;13.30;99.90;;;;;;5053487;28;20203;-65
2023/10/19 08:01:12;;;;;;;24.48;14.45;;;13.30;99.90;;;;;;5053749;28;20232;-65
2023/10/19 08:03:40;;;;;;;26.73;14.65;;;13.30;99.90;;;;;;5053296;28;20622;-65
2023/10/19 08:06:09;;;;;;;21.40;14.10;;;13.30;99.90;;;;;;5052987;28;20228;-65
2023/10/19 08:08:37;;;;;;;24.85;14.32;;;13.30;99.90;;;;;;5046623;28;20552;-65
2023/10/19 08:11:05;;;;;;;21.83;12.35;;;13.30;99.90;;;;;;5053400;28;20574;-65
2023/10/19 08:13:34;;;;;;;26.92;14.10;;;13.30;99.90;;;;;;5053229;28;20223;-66
2023/10/19 08:16:02;;;;;;;25.95;13.90;;;13.30;99.90;;;;;;5052979;28;20232;-65
2023/10/19 08:18:32;;;;;;;24.75;14.65;;;13.30;99.90;;;;;;5053013;28;20207;-66
2023/10/19 08:21:00;;;;;;;20.98;12.30;;;13.20;99.90;;;;;;5053390;28;20203;-65
2023/10/19 08:23:28;;;;;;;24.17;14.32;;;13.30;99.90;;;;;;5070724;28;20199;-66
2023/10/19 08:25:56;;;;;;;24.85;14.00;;;13.30;99.90;;;;;;5061522;28;20220;-66
2023/10/19 08:28:25;;;;;;;18.65;12.75;;;13.40;99.90;;;;;;5050690;28;20560;-65
2023/10/19 08:31:00;;;;;;;19.60;12.02;;;13.40;99.90;;;;;;5052698;28;20196;-65
2023/10/19 08:33:29;;;;;;;29.88;14.75;;;13.40;99.90;;;;;;5053074;28;20226;-65
2023/10/19 08:35:59;;;;;;;27.00;15.73;;;13.40;99.90;;;;;;5052354;28;20706;-65
2023/10/19 08:38:28;;;;;;;24.67;15.18;;;13.40;99.90;;;;;;5049403;28;20747;-65
2023/10/19 08:40:56;;;;;;;22.52;14.20;;;13.30;99.90;;;;;;5052613;28;20200;-64
2023/10/19 08:43:25;;;;;;;20.15;12.52;;;13.30;99.90;;;;;;5052606;28;20207;-65
2023/10/19 08:45:55;;;;;;;22.00;13.55;;;13.30;99.90;;;;;;5052264;28;20230;-64
2023/10/19 08:48:23;;;;;;;20.58;13.88;;;13.30;99.90;;;;;;5052690;28;20236;-64
2023/10/19 08:50:55;;;;;;;27.15;15.55;;;13.30;99.90;;;;;;5052633;28;20199;-65
2023/10/19 08:53:25;;;;;;;23.08;15.00;;;13.40;99.90;;;;;;5062111;28;20223;-65
2023/10/19 08:55:54;;;;;;;18.50;11.77;;;13.40;99.90;;;;;;5063592;28;20227;-65
2023/10/19 08:58:23;;;;;;;21.23;13.52;;;13.50;99.90;;;;;;5052393;28;20258;-65
2023/10/19 09:00:53;;;;;;;19.83;14.73;;;13.50;99.90;;;;;;5052584;28;20208;-65
2023/10/19 09:03:24;;;;;;;19.30;12.77;;;13.60;99.90;;;;;;5044897;28;20204;-65
2023/10/19 09:05:52;;;;;;;23.65;13.52;;;13.60;99.90;;;;;;5052197;28;20255;-65
2023/10/19 09:08:22;;;;;;;19.60;12.15;;;13.70;99.90;;;;;;5050969;28;20254;-65
2023/10/19 09:10:53;;;;;;;18.90;13.23;;;13.70;99.90;;;;;;5052579;28;20208;-65
2023/10/19 09:13:22;;;;;;;23.63;14.27;;;13.60;99.90;;;;;;5044519;28;20215;-66
2023/10/19 09:15:53;;;;;;;22.42;13.95;;;13.70;99.90;;;;;;5052153;28;20220;-66
2023/10/19 09:18:23;;;;;;;20.52;12.52;;;13.70;99.90;;;;;;5059742;28;20654;-65
2023/10/19 09:20:53;;;;;;;19.58;12.82;;;13.80;99.90;;;;;;5050501;28;20607;-65
2023/10/19 09:23:22;;;;;;;26.23;12.90;;;13.90;99.90;;;;;;5056531;28;20195;-66
2023/10/19 09:25:52;;;;;;;20.27;12.95;;;13.90;99.90;;;;;;5063869;28;20219;-65
2023/10/19 09:28:21;;;;;;;20.70;13.13;;;14.00;99.90;;;;;;5044081;28;20199;-65
2023/10/19 09:30:49;;;;;;;18.75;13.07;;;14.00;99.90;;;;;;5051971;28;20211;-65
2023/10/19 09:33:21;;;;;;;21.25;12.25;;;14.00;99.90;;;;;;5050597;28;20697;-65
2023/10/19 09:35:52;;;;;;;24.55;13.35;;;14.10;99.90;;;;;;5056445;28;20235;-66
2023/10/19 09:38:21;;;;;;;22.45;13.65;;;14.20;99.90;;;;;;5059607;28;20199;-65
2023/10/19 09:40:50;;;;;;;22.92;12.60;;;14.30;99.90;;;;;;5051516;28;20208;-66
2023/10/19 09:43:28;;;;;;;22.80;13.02;;;14.30;99.90;;;;;;5051725;28;20206;-65
2023/10/19 09:46:01;;;;;;;17.10;11.30;;;14.30;99.90;;;;;;5051164;28;20227;-65
2023/10/19 09:48:29;;;;;;;22.08;12.50;;;14.30;99.90;;;;;;5051217;28;20231;-66
2023/10/19 09:50:58;;;;;;;18.98;12.18;;;14.30;99.90;;;;;;5045977;28;20205;-65
2023/10/19 09:53:28;;;;;;;20.83;13.55;;;14.30;99.90;;;;;;5071142;28;20219;-65
2023/10/19 09:55:59;;;;;;;19.17;11.40;;;14.30;99.90;;;;;;5062470;28;20231;-65
2023/10/19 09:58:37;;;;;;;22.23;13.02;;;14.40;99.90;;;;;;5051117;28;20261;-66
2023/10/19 10:01:11;;;;;;;19.67;12.20;;;14.40;99.90;;;;;;5051036;28;20211;-66
2023/10/19 10:03:44;;;;;;;25.20;15.18;;;14.50;99.90;;;;;;5051195;28;20258;-66
2023/10/19 10:06:14;;;;;;;20.08;11.85;;;14.50;99.90;;;;;;5049544;28;20671;-65
2023/10/19 10:08:43;;;;;;;20.63;13.13;;;14.50;99.90;;;;;;5050880;28;20254;-66
2023/10/19 10:11:23;;;;;;;27.17;14.40;;;14.60;99.90;;;;;;5050877;28;20200;-66
2023/10/19 10:13:52;;;;;;;21.17;13.65;;;14.70;99.90;;;;;;5050978;28;20223;-66
2023/10/19 10:16:23;;;;;;;24.17;12.23;;;14.80;99.90;;;;;;5051092;28;20690;-66
2023/10/19 10:18:58;;;;;;;21.35;12.40;;;14.90;99.90;;;;;;5050880;28;20204;-66
2023/10/19 10:21:30;;;;;;;19.85;12.43;;;15.00;99.90;;;;;;5048950;28;20619;-66
2023/10/19 10:24:00;;;;;;;19.80;11.98;;;15.00;99.90;;;;;;5070681;28;20564;-66
2023/10/19 10:26:30;;;;;;;19.45;11.88;;;15.00;99.90;;;;;;5050134;28;20565;-66
2023/10/19 10:29:19;;;;;;;17.15;11.75;;;14.90;99.90;;;;;;5047931;28;20250;-65
2023/10/19 10:31:49;;;;;;;18.52;12.63;;;14.90;99.90;;;;;;5051197;28;20615;-66
2023/10/19 10:34:45;;;;;;;18.27;12.68;;;15.00;99.90;;;;;;5050543;28;20725;-66
2023/10/19 10:37:14;;;;;;;18.95;11.70;;;15.00;99.90;;;;;;5058849;28;20441;-66
2023/10/19 10:39:44;;;;;;;16.08;10.82;;;15.00;99.90;;;;;;5050546;28;20196;-66
2023/10/19 10:42:14;;;;;;;17.65;12.23;;;15.10;99.90;;;;;;5045384;28;20577;-66
2023/10/19 10:44:46;;;;;;;16.80;13.95;;;15.30;99.90;;;;;;5050422;28;20219;-66
2023/10/19 10:47:21;;;;;;;20.65;12.27;;;15.50;99.90;;;;;;5060672;28;20720;-66
2023/10/19 10:49:51;;;;;;;16.83;11.95;;;15.90;99.90;;;;;;5055270;28;20206;-66
2023/10/19 10:52:27;;;;;;;16.13;10.85;;;16.40;99.90;;;;;;5061255;28;20223;-66
2023/10/19 10:54:56;;;;;;;14.75;10.52;;;16.80;99.90;;;;;;5070450;28;20276;-66
2023/10/19 10:57:24;;;;;;;13.93;10.63;;;17.20;99.90;;;;;;5042073;28;20287;-66
2023/10/19 11:00:07;;;;;;;12.82;10.63;;;17.40;99.90;;;;;;5050433;28;20211;-66
2023/10/19 11:02:36;;;;;;;14.88;10.05;;;17.70;99.90;;;;;;5043706;28;20208;-66
2023/10/19 11:05:05;;;;;;;12.55;9.82;;;17.70;99.90;;;;;;5049992;28;20231;-65
2023/10/19 11:07:33;;;;;;;12.82;9.27;;;17.70;99.90;;;;;;5050277;28;20200;-66
2023/10/19 11:10:02;;;;;;;13.98;9.52;;;17.50;99.90;;;;;;5047835;28;20204;-65
2023/10/19 11:12:30;;;;;;;20.83;10.35;;;17.50;99.90;;;;;;5058230;28;20583;-66
2023/10/19 11:14:59;;;;;;;13.40;10.27;;;17.30;99.90;;;;;;5050317;28;20240;-66
2023/10/19 11:17:31;;;;;;;11.55;9.98;;;17.10;99.90;;;;;;5057668;28;20196;-66
2023/10/19 11:20:00;;;;;;;14.18;10.82;;;16.90;99.90;;;;;;5049867;28;20222;-66
2023/10/19 11:22:28;;;;;;;14.18;10.25;;;16.80;99.90;;;;;;5057636;28;20218;-66
2023/10/19 11:24:56;;;;;;;12.57;9.95;;;16.70;99.90;;;;;;5058245;28;20292;-65
2023/10/19 11:27:29;;;;;;;14.52;10.30;;;16.60;99.90;;;;;;5050074;28;20211;-66
2023/10/19 11:29:58;;;;;;;14.07;10.30;;;16.70;99.90;;;;;;5050002;28;20196;-66
2023/10/19 11:32:26;;;;;;;11.77;9.77;;;16.60;99.90;;;;;;5050011;28;20203;-65
2023/10/19 11:34:56;;;;;;;9.90;8.88;;;16.70;99.90;;;;;;5050204;28;20701;-66
2023/10/19 11:37:24;;;;;;;13.80;10.35;;;16.70;99.90;;;;;;5050045;28;20208;-66
2023/10/19 11:39:52;;;;;;;12.52;10.10;;;16.70;99.90;;;;;;5044112;28;20667;-66
2023/10/19 11:42:20;;;;;;;17.80;10.32;;;16.70;99.90;;;;;;5048749;28;20705;-66
2023/10/19 11:44:48;;;;;;;12.55;10.40;;;16.80;99.90;;;;;;5049945;28;20219;-66
2023/10/19 11:47:16;;;;;;;12.30;9.65;;;16.90;99.90;;;;;;5049404;28;20244;-66
2023/10/19 11:49:44;;;;;;;13.07;9.60;;;16.90;99.90;;;;;;5049960;28;20200;-66
2023/10/19 11:52:13;;;;;;;11.82;10.02;;;16.90;99.90;;;;;;5058950;28;20289;-66
2023/10/19 11:54:42;;;;;;;13.65;9.85;;;16.90;99.90;;;;;;5062174;28;20212;-66
2023/10/19 11:57:10;;;;;;;13.43;8.65;;;16.90;99.90;;;;;;5053321;28;20239;-66
2023/10/19 11:59:38;;;;;;;10.60;8.95;;;17.00;99.90;;;;;;5053611;28;20211;-66
2023/10/19 12:02:06;;;;;;;10.95;8.45;;;17.00;99.90;;;;;;5053307;28;20204;-66
2023/10/19 12:04:36;;;;;;;11.10;9.77;;;17.10;99.90;;;;;;5045735;28;20223;-66
2023/10/19 12:07:05;;;;;;;11.45;9.20;;;17.10;99.90;;;;;;5053060;28;20282;-65
2023/10/19 12:09:35;;;;;;;12.02;9.00;;;17.00;99.90;;;;;;5060365;28;20274;-66
2023/10/19 12:12:05;;;;;;;11.45;8.05;;;17.00;99.90;;;;;;5061694;28;20217;-66
2023/10/19 12:14:34;;;;;;;12.68;9.48;;;17.10;99.90;;;;;;5045270;28;20755;-66
2023/10/19 12:17:03;;;;;;;12.82;10.23;;;17.00;99.90;;;;;;5053103;28;20208;-66
2023/10/19 12:19:31;;;;;;;13.90;8.60;;;17.10;99.90;;;;;;5052872;28;20200;-66
2023/10/19 12:22:02;;;;;;;11.32;8.45;;;17.20;99.90;;;;;;5056699;28;20195;-66
2023/10/19 12:24:30;;;;;;;12.32;9.35;;;17.30;99.90;;;;;;5072739;28;20642;-66
2023/10/19 12:27:00;;;;;;;11.75;8.63;;;17.30;99.90;;;;;;5057961;28;20270;-66
2023/10/19 12:29:28;;;;;;;12.93;9.25;;;17.30;99.90;;;;;;5052752;28;21379;-66
2023/10/19 12:31:56;;;;;;;13.45;8.80;;;17.30;99.90;;;;;;5052957;28;20207;-66
2023/10/19 12:34:24;;;;;;;9.70;8.70;;;17.20;99.90;;;;;;5052624;28;20228;-66
2023/10/19 12:36:52;;;;;;;10.75;7.80;;;17.20;99.90;;;;;;5046966;28;20200;-66
2023/10/19 12:42:04;;;;;;;16.95;10.07;;;17.20;99.90;;;;;;5052895;28;20199;-66
2023/10/19 12:44:38;;;;;;;12.50;9.05;;;17.10;99.90;;;;;;5053199;28;20234;-66
2023/10/19 12:47:09;;;;;;;14.65;10.35;;;17.10;99.90;;;;;;5052509;28;20233;-66
2023/10/19 12:49:39;;;;;;;13.15;9.32;;;17.10;99.90;;;;;;5044893;28;20551;-66
2023/10/19 12:52:07;;;;;;;14.10;8.80;;;17.00;99.90;;;;;;5060392;28;20214;-66